HOURLY OBS INDEX

077

Mallee - south

HOPETOUN AIRPORT

Site: 077010
Alt: 77.3m
87km NNE of DIMBOOLA


  Time     Wind        Temp  DP   Baro     Rain since   Rain past  Vis(m), Cloud(base in m), Weather
  local        km/h                         9am  last   hr   10m    
Sun 11:00    S 28/ 39  20.5  7.5  1011.0    0.2   0.0   0.2   0.0   ----- 
Sun 11:30  SSW 20/ 35  20.8  7.1  1011.3    0.2   0.0   0.0   0.0   ----- 
Sun 12:00  SSW 24/ 37  22.1  7.1  1011.5    0.2   0.0   0.0   0.0   ----- 
Sun 12:30    S 19/ 24  22.7  7.3  1011.5    0.2   0.0   0.0   0.0   ----- 
Sun 13:00   SW 26/ 35  24.0  7.2  1011.6    0.2   0.0   0.0   0.0   ----- 
Sun 13:30  SSW 19/ 33  23.1  6.8  1011.3    0.2   0.0   0.0   0.0   ----- 
Sun 14:00  SSW 20/ 33  23.2  5.6  1011.7    0.2   0.0   0.0   0.0   ----- 
Sun 14:30    S 20/ 33  23.8  5.7  1011.6    0.2   0.0   0.0   0.0   ----- 
Sun 15:00  SSW 19/ 33  24.9  6.6  1011.4    0.2   0.0   0.0   0.0   ----- 
Sun 15:30  SSW 19/ 35  24.7  6.4  1011.5    0.2   0.0   0.0   0.0   ----- 
Sun 16:00    S 22/ 32  24.6  5.4  1011.6    0.2   0.0   0.0   0.0   ----- 
Sun 16:30   SW 20/ 32  25.4  5.6  1011.6    0.2   0.0   0.0   0.0   ----- 

SWAN HILL AERODROME

Site: 077094
Alt: 71.0m
4km SSW of SWAN HILL


  Time     Wind        Temp  DP   Baro     Rain since   Rain past  Vis(m), Cloud(base in m), Weather
  local        km/h                         9am  last   hr   10m    
Sun 11:00    S 15/ 22  21.4  7.3  1009.9    0.0   0.0   0.0   0.0   10000|SC1320 
Sun 11:30  SSW 19/ 30  22.4  6.6  1010.0    0.0   0.0   0.0   0.0   10000|SC1470 
Sun 12:00   SW 24/ 35  22.8  6.1  1010.2    0.0   0.0   0.0   0.0   10000|SC1590 
Sun 12:30    S 19/ 37  23.5  5.9  1010.0    0.0   0.0   0.0   0.0   10000|SC1740 
Sun 13:00    S 20/ 32  24.9  5.2  1009.8    0.0   0.0   0.0   0.0   10000 
Sun 13:30   SW 28/ 37  24.3  5.1  1010.2    0.0   0.0   0.0   0.0   10000 
Sun 14:00    S 17/ 32  25.3  4.4  1010.0    0.0   0.0   0.0   0.0   10000 
Sun 14:30    S 20/ 33  26.4  4.8  1010.0    0.0   0.0   0.0   0.0   10000 
Sun 15:00    S 26/ 39  26.1  3.4  1010.0    0.0   0.0   0.0   0.0   10000 
Sun 15:30  SSW 17/ 24  26.5  3.7  1009.9    0.0   0.0   0.0   0.0   10000 
Sun 16:00   SW 19/ 33  26.7  3.9  1009.5    0.0   0.0   0.0   0.0   10000 
Sun 16:30   SW 24/ 32  26.4  3.6  1009.9    0.0   0.0   0.0   0.0   10000